sensor_id;sensor_type;location;lat;lon;timestamp;noise_LAeq;noise_LA_min;noise_LA_max;noise_LA01;noise_LA95
46749;Laerm;33775;47.992;11.864;2023-06-14T00:02:14;37.01;30.89;40.13;;
46749;Laerm;33775;47.992;11.864;2023-06-14T00:04:40;37.01;31.68;40.13;;
46749;Laerm;33775;47.992;11.864;2023-06-14T00:07:06;37.01;31.68;40.03;;
46749;Laerm;33775;47.992;11.864;2023-06-14T00:09:34;36.97;30.54;39.70;;
46749;Laerm;33775;47.992;11.864;2023-06-14T00:12:00;36.99;31.68;39.58;;
46749;Laerm;33775;47.992;11.864;2023-06-14T00:14:25;36.99;31.68;40.23;;
46749;Laerm;33775;47.992;11.864;2023-06-14T00:16:50;36.95;31.68;40.23;;
46749;Laerm;33775;47.992;11.864;2023-06-14T00:19:17;37.01;32.00;40.13;;
46749;Laerm;33775;47.992;11.864;2023-06-14T00:21:42;36.97;31.68;39.92;;
46749;Laerm;33775;47.992;11.864;2023-06-14T00:24:08;36.95;29.92;40.43;;
46749;Laerm;33775;47.992;11.864;2023-06-14T00:26:33;36.96;30.89;40.23;;
46749;Laerm;33775;47.992;11.864;2023-06-14T00:28:58;36.97;30.89;39.81;;
46749;Laerm;33775;47.992;11.864;2023-06-14T00:31:24;36.97;31.68;39.81;;
46749;Laerm;33775;47.992;11.864;2023-06-14T00:33:49;36.97;30.89;40.03;;
46749;Laerm;33775;47.992;11.864;2023-06-14T00:36:14;36.96;31.68;39.70;;
46749;Laerm;33775;47.992;11.864;2023-06-14T00:38:39;36.96;32.35;41.53;;
46749;Laerm;33775;47.992;11.864;2023-06-14T00:41:05;36.93;31.68;39.92;;
46749;Laerm;33775;47.992;11.864;2023-06-14T00:43:30;36.94;32.35;39.81;;
46749;Laerm;33775;47.992;11.864;2023-06-14T00:45:55;36.94;30.89;39.70;;
46749;Laerm;33775;47.992;11.864;2023-06-14T00:48:20;36.92;30.89;40.03;;
46749;Laerm;33775;47.992;11.864;2023-06-14T00:50:46;36.89;31.68;40.23;;
46749;Laerm;33775;47.992;11.864;2023-06-14T00:53:13;36.91;31.68;40.13;;
46749;Laerm;33775;47.992;11.864;2023-06-14T00:55:40;36.89;32.35;39.81;;
46749;Laerm;33775;47.992;11.864;2023-06-14T00:58:05;36.87;32.35;39.92;;
46749;Laerm;33775;47.992;11.864;2023-06-14T01:00:31;36.91;32.35;40.45;;
46749;Laerm;33775;47.992;11.864;2023-06-14T01:02:56;36.89;31.68;39.81;;
46749;Laerm;33775;47.992;11.864;2023-06-14T01:05:21;36.90;31.68;39.92;;
46749;Laerm;33775;47.992;11.864;2023-06-14T01:12:57;36.86;30.89;39.92;;
46749;Laerm;33775;47.992;11.864;2023-06-14T01:15:23;36.87;31.68;39.92;;
46749;Laerm;33775;47.992;11.864;2023-06-14T01:17:50;36.86;32.58;39.70;;
46749;Laerm;33775;47.992;11.864;2023-06-14T01:20:16;36.85;31.68;39.70;;
46749;Laerm;33775;47.992;11.864;2023-06-14T01:22:49;36.86;30.89;39.81;;
46749;Laerm;33775;47.992;11.864;2023-06-14T01:25:15;36.84;30.89;40.03;;
46749;Laerm;33775;47.992;11.864;2023-06-14T01:27:41;36.83;32.35;39.46;;
46749;Laerm;33775;47.992;11.864;2023-06-14T01:30:07;36.81;30.89;39.58;;
46749;Laerm;33775;47.992;11.864;2023-06-14T01:32:32;36.81;32.35;39.81;;
46749;Laerm;33775;47.992;11.864;2023-06-14T01:34:57;36.79;31.68;39.70;;
46749;Laerm;33775;47.992;11.864;2023-06-14T01:37:22;36.78;30.89;39.46;;
46749;Laerm;33775;47.992;11.864;2023-06-14T01:39:48;36.83;30.89;39.58;;
46749;Laerm;33775;47.992;11.864;2023-06-14T01:42:15;36.78;31.68;39.46;;
46749;Laerm;33775;47.992;11.864;2023-06-14T01:44:42;36.81;29.92;39.81;;
46749;Laerm;33775;47.992;11.864;2023-06-14T01:47:07;36.81;30.89;40.13;;
46749;Laerm;33775;47.992;11.864;2023-06-14T01:49:33;36.79;32.35;39.70;;
46749;Laerm;33775;47.992;11.864;2023-06-14T01:51:59;36.78;32.35;39.70;;
46749;Laerm;33775;47.992;11.864;2023-06-14T01:54:25;36.83;31.33;47.02;;
46749;Laerm;33775;47.992;11.864;2023-06-14T01:56:50;36.80;30.89;47.26;;
46749;Laerm;33775;47.992;11.864;2023-06-14T01:59:16;36.77;32.35;44.51;;
46749;Laerm;33775;47.992;11.864;2023-06-14T02:01:41;36.81;31.68;49.12;;
46749;Laerm;33775;47.992;11.864;2023-06-14T02:04:06;36.79;31.68;48.37;;
46749;Laerm;33775;47.992;11.864;2023-06-14T02:06:31;36.69;30.89;41.14;;
46749;Laerm;33775;47.992;11.864;2023-06-14T02:08:56;36.73;30.89;39.70;;
46749;Laerm;33775;47.992;11.864;2023-06-14T02:11:21;36.72;31.68;39.46;;
46749;Laerm;33775;47.992;11.864;2023-06-14T02:13:47;36.72;30.89;40.13;;
46749;Laerm;33775;47.992;11.864;2023-06-14T02:16:12;36.70;30.89;39.58;;
46749;Laerm;33775;47.992;11.864;2023-06-14T02:18:37;36.72;30.89;39.34;;
46749;Laerm;33775;47.992;11.864;2023-06-14T02:21:02;36.69;30.89;39.70;;
46749;Laerm;33775;47.992;11.864;2023-06-14T02:23:28;36.71;31.68;39.70;;
46749;Laerm;33775;47.992;11.864;2023-06-14T02:25:53;36.65;29.92;39.92;;
46749;Laerm;33775;47.992;11.864;2023-06-14T02:28:18;36.65;29.92;39.70;;
46749;Laerm;33775;47.992;11.864;2023-06-14T02:30:43;36.64;30.89;39.70;;
46749;Laerm;33775;47.992;11.864;2023-06-14T02:33:08;36.58;31.68;39.58;;
46749;Laerm;33775;47.992;11.864;2023-06-14T02:35:37;36.61;31.68;39.58;;
46749;Laerm;33775;47.992;11.864;2023-06-14T02:38:02;36.64;31.68;39.58;;
46749;Laerm;33775;47.992;11.864;2023-06-14T02:40:27;36.62;29.92;39.81;;
46749;Laerm;33775;47.992;11.864;2023-06-14T02:42:53;36.64;30.89;44.11;;
46749;Laerm;33775;47.992;11.864;2023-06-14T02:45:18;36.62;30.89;46.84;;
46749;Laerm;33775;47.992;11.864;2023-06-14T02:47:43;36.55;28.67;39.70;;
46749;Laerm;33775;47.992;11.864;2023-06-14T02:50:08;36.64;30.89;49.32;;
46749;Laerm;33775;47.992;11.864;2023-06-14T02:52:34;36.57;30.89;43.34;;
46749;Laerm;33775;47.992;11.864;2023-06-14T02:54:59;36.65;31.33;48.87;;
46749;Laerm;33775;47.992;11.864;2023-06-14T02:57:24;36.56;31.68;39.81;;
46749;Laerm;33775;47.992;11.864;2023-06-14T02:59:50;36.59;28.67;51.94;;
46749;Laerm;33775;47.992;11.864;2023-06-14T03:02:15;36.55;29.92;47.61;;
46749;Laerm;33775;47.992;11.864;2023-06-14T03:04:40;36.62;30.89;53.20;;
46749;Laerm;33775;47.992;11.864;2023-06-14T03:07:07;36.52;28.67;44.73;;
46749;Laerm;33775;47.992;11.864;2023-06-14T03:09:36;36.51;30.54;41.68;;
46749;Laerm;33775;47.992;11.864;2023-06-14T03:12:02;36.52;30.89;42.76;;
46749;Laerm;33775;47.992;11.864;2023-06-14T03:14:28;36.57;29.92;46.79;;
46749;Laerm;33775;47.992;11.864;2023-06-14T03:16:54;36.55;31.33;40.98;;
46749;Laerm;33775;47.992;11.864;2023-06-14T03:19:21;36.51;30.89;46.73;;
46749;Laerm;33775;47.992;11.864;2023-06-14T03:21:46;36.63;30.89;50.04;;
46749;Laerm;33775;47.992;11.864;2023-06-14T03:24:12;36.54;29.92;48.48;;
46749;Laerm;33775;47.992;11.864;2023-06-14T03:26:37;36.50;28.67;39.70;;
46749;Laerm;33775;47.992;11.864;2023-06-14T03:29:02;36.43;29.92;39.70;;
46749;Laerm;33775;47.992;11.864;2023-06-14T03:31:28;36.44;29.92;39.34;;
46749;Laerm;33775;47.992;11.864;2023-06-14T03:33:57;36.41;30.89;39.58;;
46749;Laerm;33775;47.992;11.864;2023-06-14T03:36:22;36.39;29.92;39.58;;
46749;Laerm;33775;47.992;11.864;2023-06-14T03:38:47;36.44;29.92;39.08;;
46749;Laerm;33775;47.992;11.864;2023-06-14T03:41:13;36.46;29.92;39.70;;
46749;Laerm;33775;47.992;11.864;2023-06-14T03:43:38;36.47;28.67;39.92;;
46749;Laerm;33775;47.992;11.864;2023-06-14T03:46:03;36.44;29.92;39.23;;
46749;Laerm;33775;47.992;11.864;2023-06-14T03:48:28;36.41;29.92;39.70;;
46749;Laerm;33775;47.992;11.864;2023-06-14T03:50:53;36.39;29.92;39.58;;
46749;Laerm;33775;47.992;11.864;2023-06-14T03:53:19;36.38;29.92;39.34;;
46749;Laerm;33775;47.992;11.864;2023-06-14T03:55:48;36.44;28.67;39.58;;
46749;Laerm;33775;47.992;11.864;2023-06-14T03:58:13;36.45;29.92;39.34;;
46749;Laerm;33775;47.992;11.864;2023-06-14T04:00:39;36.44;29.92;39.58;;
46749;Laerm;33775;47.992;11.864;2023-06-14T04:03:05;36.43;30.89;39.46;;
46749;Laerm;33775;47.992;11.864;2023-06-14T04:05:30;36.43;29.92;39.34;;
46749;Laerm;33775;47.992;11.864;2023-06-14T04:07:56;36.42;30.89;39.46;;
46749;Laerm;33775;47.992;11.864;2023-06-14T04:10:22;36.45;29.92;39.92;;
46749;Laerm;33775;47.992;11.864;2023-06-14T04:12:47;36.48;29.92;39.34;;
46749;Laerm;33775;47.992;11.864;2023-06-14T04:15:13;36.49;30.89;39.46;;
46749;Laerm;33775;47.992;11.864;2023-06-14T04:17:38;36.48;30.89;39.81;;
46749;Laerm;33775;47.992;11.864;2023-06-14T04:20:04;36.48;30.89;39.58;;
46749;Laerm;33775;47.992;11.864;2023-06-14T04:22:31;36.44;29.92;39.46;;
46749;Laerm;33775;47.992;11.864;2023-06-14T04:24:56;36.49;30.89;39.34;;
46749;Laerm;33775;47.992;11.864;2023-06-14T04:27:22;36.47;29.92;39.81;;
46749;Laerm;33775;47.992;11.864;2023-06-14T04:29:53;36.50;28.67;44.47;;
46749;Laerm;33775;47.992;11.864;2023-06-14T04:32:23;36.58;30.89;42.53;;
46749;Laerm;33775;47.992;11.864;2023-06-14T04:34:50;36.61;30.89;40.98;;
46749;Laerm;33775;47.992;11.864;2023-06-14T04:37:18;36.76;31.68;49.04;;
46749;Laerm;33775;47.992;11.864;2023-06-14T04:39:43;36.80;30.89;45.97;;
46749;Laerm;33775;47.992;11.864;2023-06-14T04:42:09;36.80;30.89;44.31;;
46749;Laerm;33775;47.992;11.864;2023-06-14T04:44:36;36.81;30.89;49.33;;
46749;Laerm;33775;47.992;11.864;2023-06-14T04:47:05;36.75;31.68;48.02;;
46749;Laerm;33775;47.992;11.864;2023-06-14T04:49:31;36.71;29.92;48.73;;
46749;Laerm;33775;47.992;11.864;2023-06-14T04:51:57;36.64;30.89;46.38;;
46749;Laerm;33775;47.992;11.864;2023-06-14T04:54:24;36.68;31.68;45.04;;
46749;Laerm;33775;47.992;11.864;2023-06-14T04:56:52;36.76;31.68;45.39;;
46749;Laerm;33775;47.992;11.864;2023-06-14T04:59:20;36.77;32.35;44.31;;
46749;Laerm;33775;47.992;11.864;2023-06-14T05:01:45;36.83;30.89;49.38;;
46749;Laerm;33775;47.992;11.864;2023-06-14T05:04:16;36.83;31.68;39.92;;
46749;Laerm;33775;47.992;11.864;2023-06-14T05:06:44;36.86;31.68;39.92;;
46749;Laerm;33775;47.992;11.864;2023-06-14T05:09:15;36.91;31.68;39.70;;
46749;Laerm;33775;47.992;11.864;2023-06-14T05:11:41;36.93;30.89;39.89;;
46749;Laerm;33775;47.992;11.864;2023-06-14T05:14:10;36.96;31.68;40.03;;
46749;Laerm;33775;47.992;11.864;2023-06-14T05:16:35;36.95;30.89;40.23;;
46749;Laerm;33775;47.992;11.864;2023-06-14T05:19:01;37.02;31.68;39.81;;
46749;Laerm;33775;47.992;11.864;2023-06-14T05:21:27;36.86;31.33;39.92;;
46749;Laerm;33775;47.992;11.864;2023-06-14T05:23:53;36.88;31.68;39.58;;
46749;Laerm;33775;47.992;11.864;2023-06-14T05:26:18;37.00;32.35;48.28;;
46749;Laerm;33775;47.992;11.864;2023-06-14T05:28:44;37.19;32.35;56.42;;
46749;Laerm;33775;47.992;11.864;2023-06-14T05:31:09;37.23;32.35;39.92;;
46749;Laerm;33775;47.992;11.864;2023-06-14T05:33:34;37.28;32.93;39.92;;
46749;Laerm;33775;47.992;11.864;2023-06-14T05:35:59;37.34;33.44;39.92;;
46749;Laerm;33775;47.992;11.864;2023-06-14T05:38:25;37.38;33.44;40.80;;
46749;Laerm;33775;47.992;11.864;2023-06-14T05:40:50;37.40;33.44;40.13;;
46749;Laerm;33775;47.992;11.864;2023-06-14T05:43:15;37.41;32.93;40.23;;
46749;Laerm;33775;47.992;11.864;2023-06-14T05:45:41;37.39;33.44;40.08;;
46749;Laerm;33775;47.992;11.864;2023-06-14T05:48:06;37.42;33.44;40.33;;
46749;Laerm;33775;47.992;11.864;2023-06-14T05:50:31;37.47;32.93;40.33;;
46749;Laerm;33775;47.992;11.864;2023-06-14T05:52:56;37.43;32.35;39.81;;
46749;Laerm;33775;47.992;11.864;2023-06-14T05:55:21;37.47;33.44;40.13;;
46749;Laerm;33775;47.992;11.864;2023-06-14T05:57:47;37.47;32.93;40.23;;
46749;Laerm;33775;47.992;11.864;2023-06-14T06:00:13;37.45;32.35;40.13;;
46749;Laerm;33775;47.992;11.864;2023-06-14T06:02:41;37.47;32.35;40.23;;
46749;Laerm;33775;47.992;11.864;2023-06-14T06:05:10;37.48;33.44;40.23;;
46749;Laerm;33775;47.992;11.864;2023-06-14T06:07:35;37.45;32.93;40.33;;
46749;Laerm;33775;47.992;11.864;2023-06-14T06:10:01;37.44;33.44;40.13;;
46749;Laerm;33775;47.992;11.864;2023-06-14T06:12:26;37.49;33.44;40.13;;
46749;Laerm;33775;47.992;11.864;2023-06-14T06:14:51;37.45;33.44;40.33;;
46749;Laerm;33775;47.992;11.864;2023-06-14T06:17:16;37.45;32.93;40.33;;
46749;Laerm;33775;47.992;11.864;2023-06-14T06:19:42;37.41;32.35;40.33;;
46749;Laerm;33775;47.992;11.864;2023-06-14T06:22:07;37.40;32.93;40.33;;
46749;Laerm;33775;47.992;11.864;2023-06-14T06:24:33;37.41;33.44;40.03;;
46749;Laerm;33775;47.992;11.864;2023-06-14T06:26:58;38.67;32.35;68.81;;
46749;Laerm;33775;47.992;11.864;2023-06-14T06:29:23;37.39;33.44;40.03;;
46749;Laerm;33775;47.992;11.864;2023-06-14T06:31:48;37.38;32.93;40.03;;
46749;Laerm;33775;47.992;11.864;2023-06-14T06:34:13;37.38;32.58;40.62;;
46749;Laerm;33775;47.992;11.864;2023-06-14T06:36:38;37.36;30.89;40.23;;
46749;Laerm;33775;47.992;11.864;2023-06-14T06:39:04;37.38;31.68;40.33;;
46749;Laerm;33775;47.992;11.864;2023-06-14T06:41:34;37.37;32.93;40.13;;
46749;Laerm;33775;47.992;11.864;2023-06-14T06:44:01;37.35;32.93;40.23;;
46749;Laerm;33775;47.992;11.864;2023-06-14T06:46:26;37.30;31.68;40.62;;
46749;Laerm;33775;47.992;11.864;2023-06-14T06:48:51;37.32;31.68;40.33;;
46749;Laerm;33775;47.992;11.864;2023-06-14T06:51:17;37.33;33.44;40.33;;
46749;Laerm;33775;47.992;11.864;2023-06-14T06:53:42;37.32;32.93;40.27;;
46749;Laerm;33775;47.992;11.864;2023-06-14T06:56:08;37.32;32.35;40.13;;
46749;Laerm;33775;47.992;11.864;2023-06-14T06:58:33;37.26;32.35;40.23;;
46749;Laerm;33775;47.992;11.864;2023-06-14T07:00:58;37.26;32.93;40.33;;
46749;Laerm;33775;47.992;11.864;2023-06-14T07:03:23;37.27;32.35;40.13;;
46749;Laerm;33775;47.992;11.864;2023-06-14T07:05:49;37.22;32.35;40.03;;
46749;Laerm;33775;47.992;11.864;2023-06-14T07:08:14;37.27;31.68;39.92;;
46749;Laerm;33775;47.992;11.864;2023-06-14T07:10:39;37.23;32.35;40.03;;
46749;Laerm;33775;47.992;11.864;2023-06-14T07:13:04;37.23;32.35;40.13;;
46749;Laerm;33775;47.992;11.864;2023-06-14T07:15:30;37.24;32.35;40.13;;
46749;Laerm;33775;47.992;11.864;2023-06-14T07:17:55;37.22;29.92;40.43;;
46749;Laerm;33775;47.992;11.864;2023-06-14T07:20:24;37.19;31.68;40.13;;
46749;Laerm;33775;47.992;11.864;2023-06-14T07:22:49;37.17;32.93;40.03;;
46749;Laerm;33775;47.992;11.864;2023-06-14T07:25:14;37.16;29.92;40.03;;
46749;Laerm;33775;47.992;11.864;2023-06-14T07:27:43;37.09;31.68;39.81;;
46749;Laerm;33775;47.992;11.864;2023-06-14T07:30:08;37.13;30.89;39.81;;
46749;Laerm;33775;47.992;11.864;2023-06-14T07:32:34;37.12;31.68;39.92;;
46749;Laerm;33775;47.992;11.864;2023-06-14T07:34:59;37.15;30.89;40.03;;
46749;Laerm;33775;47.992;11.864;2023-06-14T07:37:24;37.13;32.35;39.92;;
46749;Laerm;33775;47.992;11.864;2023-06-14T07:39:50;37.14;32.35;40.43;;
46749;Laerm;33775;47.992;11.864;2023-06-14T07:42:15;37.12;29.92;40.71;;
46749;Laerm;33775;47.992;11.864;2023-06-14T07:44:40;37.14;31.68;40.43;;
46749;Laerm;33775;47.992;11.864;2023-06-14T07:47:05;37.13;30.89;39.92;;
46749;Laerm;33775;47.992;11.864;2023-06-14T07:49:30;37.11;32.35;40.23;;
46749;Laerm;33775;47.992;11.864;2023-06-14T07:51:56;37.08;31.33;39.92;;
46749;Laerm;33775;47.992;11.864;2023-06-14T07:54:21;37.11;31.33;39.92;;
46749;Laerm;33775;47.992;11.864;2023-06-14T07:56:50;37.07;31.68;40.03;;
46749;Laerm;33775;47.992;11.864;2023-06-14T07:59:16;37.10;29.92;39.92;;
46749;Laerm;33775;47.992;11.864;2023-06-14T08:01:41;37.07;31.68;39.92;;
46749;Laerm;33775;47.992;11.864;2023-06-14T08:04:13;37.09;31.68;39.81;;
46749;Laerm;33775;47.992;11.864;2023-06-14T08:06:38;37.06;31.33;40.23;;
46749;Laerm;33775;47.992;11.864;2023-06-14T08:09:04;37.08;29.92;39.92;;
46749;Laerm;33775;47.992;11.864;2023-06-14T08:11:29;37.01;28.67;40.13;;
46749;Laerm;33775;47.992;11.864;2023-06-14T08:13:54;37.08;31.68;40.13;;
46749;Laerm;33775;47.992;11.864;2023-06-14T08:16:19;37.05;30.89;39.92;;
46749;Laerm;33775;47.992;11.864;2023-06-14T08:18:44;37.04;32.35;39.92;;
46749;Laerm;33775;47.992;11.864;2023-06-14T08:21:10;37.01;31.68;40.13;;
46749;Laerm;33775;47.992;11.864;2023-06-14T08:23:36;37.02;31.68;39.81;;
46749;Laerm;33775;47.992;11.864;2023-06-14T08:26:01;36.97;29.92;40.23;;
46749;Laerm;33775;47.992;11.864;2023-06-14T08:28:29;36.95;29.92;40.13;;
46749;Laerm;33775;47.992;11.864;2023-06-14T08:30:54;37.00;30.89;39.92;;
46749;Laerm;33775;47.992;11.864;2023-06-14T08:33:19;36.99;31.68;40.03;;
46749;Laerm;33775;47.992;11.864;2023-06-14T08:35:44;36.94;31.68;40.43;;
46749;Laerm;33775;47.992;11.864;2023-06-14T08:38:10;36.96;31.68;39.92;;
46749;Laerm;33775;47.992;11.864;2023-06-14T08:40:36;36.97;31.68;39.92;;
46749;Laerm;33775;47.992;11.864;2023-06-14T08:43:02;36.93;28.67;40.13;;
46749;Laerm;33775;47.992;11.864;2023-06-14T08:45:28;36.96;30.89;40.23;;
46749;Laerm;33775;47.992;11.864;2023-06-14T08:47:53;36.93;30.89;40.03;;
46749;Laerm;33775;47.992;11.864;2023-06-14T08:50:23;36.94;30.89;40.13;;
46749;Laerm;33775;47.992;11.864;2023-06-14T08:52:50;36.93;31.68;39.89;;
46749;Laerm;33775;47.992;11.864;2023-06-14T08:55:18;36.99;30.89;40.13;;
46749;Laerm;33775;47.992;11.864;2023-06-14T08:57:45;36.94;29.57;39.92;;
46749;Laerm;33775;47.992;11.864;2023-06-14T09:00:11;36.89;30.89;39.78;;
46749;Laerm;33775;47.992;11.864;2023-06-14T09:02:38;36.90;28.67;39.92;;
46749;Laerm;33775;47.992;11.864;2023-06-14T09:05:08;36.93;32.35;40.23;;
46749;Laerm;33775;47.992;11.864;2023-06-14T09:07:33;36.90;30.89;39.81;;
46749;Laerm;33775;47.992;11.864;2023-06-14T09:10:11;36.86;29.92;39.92;;
46749;Laerm;33775;47.992;11.864;2023-06-14T09:12:37;36.83;30.89;39.92;;
46749;Laerm;33775;47.992;11.864;2023-06-14T09:15:03;36.83;29.92;40.13;;
46749;Laerm;33775;47.992;11.864;2023-06-14T09:17:32;36.82;30.89;40.13;;
46749;Laerm;33775;47.992;11.864;2023-06-14T09:19:58;36.84;30.89;40.13;;
46749;Laerm;33775;47.992;11.864;2023-06-14T09:22:23;36.81;28.67;39.92;;
46749;Laerm;33775;47.992;11.864;2023-06-14T09:24:48;36.80;29.92;40.43;;
46749;Laerm;33775;47.992;11.864;2023-06-14T09:27:17;36.83;30.89;40.03;;
46749;Laerm;33775;47.992;11.864;2023-06-14T09:29:42;36.81;29.92;39.92;;
46749;Laerm;33775;47.992;11.864;2023-06-14T09:32:07;36.83;28.67;40.13;;
46749;Laerm;33775;47.992;11.864;2023-06-14T09:34:34;36.82;28.67;40.33;;
46749;Laerm;33775;47.992;11.864;2023-06-14T09:37:00;36.79;28.67;40.03;;
46749;Laerm;33775;47.992;11.864;2023-06-14T09:39:25;36.82;30.89;40.03;;
46749;Laerm;33775;47.992;11.864;2023-06-14T09:41:50;36.81;30.89;40.43;;
46749;Laerm;33775;47.992;11.864;2023-06-14T09:44:15;36.82;28.67;40.23;;
46749;Laerm;33775;47.992;11.864;2023-06-14T09:46:42;36.81;31.68;40.03;;
46749;Laerm;33775;47.992;11.864;2023-06-14T09:49:08;36.81;30.89;40.71;;
46749;Laerm;33775;47.992;11.864;2023-06-14T09:51:34;36.77;30.54;40.03;;
46749;Laerm;33775;47.992;11.864;2023-06-14T09:54:00;36.69;28.67;39.81;;
46749;Laerm;33775;47.992;11.864;2023-06-14T09:56:30;36.76;29.92;40.13;;
46749;Laerm;33775;47.992;11.864;2023-06-14T09:58:56;36.73;29.92;39.81;;
46749;Laerm;33775;47.992;11.864;2023-06-14T10:01:22;36.74;29.92;40.23;;
46749;Laerm;33775;47.992;11.864;2023-06-14T10:03:49;36.76;29.92;40.03;;
46749;Laerm;33775;47.992;11.864;2023-06-14T10:06:15;36.81;29.92;39.81;;
46749;Laerm;33775;47.992;11.864;2023-06-14T10:08:41;36.82;28.67;40.33;;
46749;Laerm;33775;47.992;11.864;2023-06-14T10:11:07;36.70;29.92;40.03;;
46749;Laerm;33775;47.992;11.864;2023-06-14T10:13:32;36.76;28.67;40.13;;
46749;Laerm;33775;47.992;11.864;2023-06-14T10:23:52;36.74;30.89;39.92;;
46749;Laerm;33775;47.992;11.864;2023-06-14T10:26:22;36.68;29.92;40.18;;
46749;Laerm;33775;47.992;11.864;2023-06-14T10:29:00;36.63;28.67;40.53;;
46749;Laerm;33775;47.992;11.864;2023-06-14T10:31:39;36.64;29.92;39.58;;
46749;Laerm;33775;47.992;11.864;2023-06-14T10:34:05;36.69;28.67;39.68;;
46749;Laerm;33775;47.992;11.864;2023-06-14T10:36:30;36.74;30.89;40.03;;
46749;Laerm;33775;47.992;11.864;2023-06-14T10:39:01;36.63;30.89;40.33;;
46749;Laerm;33775;47.992;11.864;2023-06-14T10:41:29;36.68;29.92;39.81;;
46749;Laerm;33775;47.992;11.864;2023-06-14T10:44:10;36.65;28.67;39.81;;
46749;Laerm;33775;47.992;11.864;2023-06-14T10:46:36;36.65;29.92;39.92;;
46749;Laerm;33775;47.992;11.864;2023-06-14T10:49:01;36.65;30.89;39.81;;
46749;Laerm;33775;47.992;11.864;2023-06-14T10:51:29;36.70;26.91;39.92;;
46749;Laerm;33775;47.992;11.864;2023-06-14T10:53:55;36.68;29.92;40.03;;
46749;Laerm;33775;47.992;11.864;2023-06-14T10:56:26;36.70;26.91;40.23;;
46749;Laerm;33775;47.992;11.864;2023-06-14T10:58:52;36.68;30.89;39.92;;
46749;Laerm;33775;47.992;11.864;2023-06-14T11:01:19;36.75;28.67;39.92;;
46749;Laerm;33775;47.992;11.864;2023-06-14T11:03:51;36.51;29.57;39.58;;
46749;Laerm;33775;47.992;11.864;2023-06-14T11:06:17;36.51;29.92;39.70;;
46749;Laerm;33775;47.992;11.864;2023-06-14T11:11:21;36.55;26.91;42.29;;
46749;Laerm;33775;47.992;11.864;2023-06-14T11:13:47;36.47;28.67;39.46;;
46749;Laerm;33775;47.992;11.864;2023-06-14T11:16:12;36.61;23.90;40.13;;
46749;Laerm;33775;47.992;11.864;2023-06-14T11:18:38;36.64;29.92;39.46;;
46749;Laerm;33775;47.992;11.864;2023-06-14T11:21:03;36.61;28.67;39.46;;
46749;Laerm;33775;47.992;11.864;2023-06-14T11:23:28;36.65;26.91;39.81;;
46749;Laerm;33775;47.992;11.864;2023-06-14T11:25:54;36.68;28.32;40.43;;
46749;Laerm;33775;47.992;11.864;2023-06-14T11:28:19;36.67;29.92;39.92;;
46749;Laerm;33775;47.992;11.864;2023-06-14T11:30:46;36.69;26.91;39.99;;
46749;Laerm;33775;47.992;11.864;2023-06-14T11:33:15;36.65;28.67;39.58;;
46749;Laerm;33775;47.992;11.864;2023-06-14T11:35:42;36.66;28.67;40.03;;
46749;Laerm;33775;47.992;11.864;2023-06-14T11:38:07;36.61;29.92;39.92;;
46749;Laerm;33775;47.992;11.864;2023-06-14T11:40:32;36.58;28.67;39.58;;
46749;Laerm;33775;47.992;11.864;2023-06-14T11:42:58;36.59;26.91;39.78;;
46749;Laerm;33775;47.992;11.864;2023-06-14T11:45:24;36.72;26.56;44.39;;
46749;Laerm;33775;47.992;11.864;2023-06-14T11:47:49;36.63;30.89;39.92;;
46749;Laerm;33775;47.992;11.864;2023-06-14T11:50:15;36.52;28.67;39.92;;
46749;Laerm;33775;47.992;11.864;2023-06-14T11:52:40;36.46;29.92;40.03;;
46749;Laerm;33775;47.992;11.864;2023-06-14T11:55:06;36.45;29.92;39.70;;
46749;Laerm;33775;47.992;11.864;2023-06-14T11:57:34;36.44;29.92;39.70;;
46749;Laerm;33775;47.992;11.864;2023-06-14T12:00:04;36.47;28.67;40.23;;
46749;Laerm;33775;47.992;11.864;2023-06-14T12:02:40;36.53;28.67;39.70;;
46749;Laerm;33775;47.992;11.864;2023-06-14T12:05:05;36.57;29.92;39.81;;
46749;Laerm;33775;47.992;11.864;2023-06-14T12:07:33;36.60;29.92;39.70;;
46749;Laerm;33775;47.992;11.864;2023-06-14T12:12:23;36.59;29.92;39.81;;
46749;Laerm;33775;47.992;11.864;2023-06-14T12:14:52;36.53;28.67;39.58;;
46749;Laerm;33775;47.992;11.864;2023-06-14T12:17:18;36.56;29.92;39.46;;
46749;Laerm;33775;47.992;11.864;2023-06-14T12:19:44;36.59;26.91;39.70;;
46749;Laerm;33775;47.992;11.864;2023-06-14T12:22:10;36.60;30.89;39.81;;
46749;Laerm;33775;47.992;11.864;2023-06-14T12:24:35;36.55;29.92;39.70;;
46749;Laerm;33775;47.992;11.864;2023-06-14T12:27:00;36.53;29.92;39.70;;
46749;Laerm;33775;47.992;11.864;2023-06-14T12:29:28;36.55;29.92;39.70;;
46749;Laerm;33775;47.992;11.864;2023-06-14T12:31:53;36.57;26.56;39.70;;
46749;Laerm;33775;47.992;11.864;2023-06-14T12:34:19;36.56;29.92;39.58;;
46749;Laerm;33775;47.992;11.864;2023-06-14T12:36:44;36.55;29.92;39.92;;
46749;Laerm;33775;47.992;11.864;2023-06-14T12:39:11;36.56;30.89;39.92;;
46749;Laerm;33775;47.992;11.864;2023-06-14T12:41:36;36.56;29.92;39.92;;
46749;Laerm;33775;47.992;11.864;2023-06-14T12:44:02;36.53;29.92;39.92;;
46749;Laerm;33775;47.992;11.864;2023-06-14T12:46:29;36.53;29.92;39.70;;
46749;Laerm;33775;47.992;11.864;2023-06-14T12:48:56;36.55;29.92;39.58;;
46749;Laerm;33775;47.992;11.864;2023-06-14T12:51:21;36.54;26.91;39.70;;
46749;Laerm;33775;47.992;11.864;2023-06-14T12:53:47;36.54;28.67;39.92;;
46749;Laerm;33775;47.992;11.864;2023-06-14T12:56:12;36.56;26.91;40.03;;
46749;Laerm;33775;47.992;11.864;2023-06-14T12:58:37;36.59;26.91;39.46;;
46749;Laerm;33775;47.992;11.864;2023-06-14T13:01:03;36.59;28.67;39.46;;
46749;Laerm;33775;47.992;11.864;2023-06-14T13:03:28;36.54;28.67;39.70;;
46749;Laerm;33775;47.992;11.864;2023-06-14T13:05:53;36.53;28.67;39.58;;
46749;Laerm;33775;47.992;11.864;2023-06-14T13:08:18;36.50;26.91;39.70;;
46749;Laerm;33775;47.992;11.864;2023-06-14T13:10:44;36.50;26.91;39.81;;
46749;Laerm;33775;47.992;11.864;2023-06-14T13:13:09;36.51;26.91;39.70;;
46749;Laerm;33775;47.992;11.864;2023-06-14T13:15:37;36.53;29.92;39.58;;
46749;Laerm;33775;47.992;11.864;2023-06-14T13:18:03;36.55;28.67;39.81;;
46749;Laerm;33775;47.992;11.864;2023-06-14T13:20:28;36.55;29.92;39.92;;
46749;Laerm;33775;47.992;11.864;2023-06-14T13:22:53;36.58;29.92;39.46;;
46749;Laerm;33775;47.992;11.864;2023-06-14T13:25:18;36.52;28.67;39.70;;
46749;Laerm;33775;47.992;11.864;2023-06-14T13:27:44;36.54;29.92;39.58;;
46749;Laerm;33775;47.992;11.864;2023-06-14T13:30:09;36.57;29.92;39.81;;
46749;Laerm;33775;47.992;11.864;2023-06-14T13:32:34;36.51;28.67;39.70;;
46749;Laerm;33775;47.992;11.864;2023-06-14T13:35:00;36.54;28.67;39.58;;
46749;Laerm;33775;47.992;11.864;2023-06-14T13:37:25;36.58;26.91;39.81;;
46749;Laerm;33775;47.992;11.864;2023-06-14T13:39:51;36.51;29.92;39.81;;
46749;Laerm;33775;47.992;11.864;2023-06-14T13:42:16;36.50;29.92;39.46;;
46749;Laerm;33775;47.992;11.864;2023-06-14T13:44:41;36.53;29.92;39.58;;